Time;durP1;ratioP1;P1;durP2;ratioP2;P2;SDS_P1;SDS_P2;PMS_P1;PMS_P2;Temp;Humidity;BMP_temperature;BMP_pressure;BME280_temperature;BME280_humidity;BME280_pressure;Samples;Min_cycle;Max_cycle;Signal;HPM_P1;HPM_P2
2022/03/04 00:00:43;;;;;;;18.70;14.67;;;;;;;;;;5051964;28;20794;-78
2022/03/04 00:03:11;;;;;;;16.43;14.10;;;;;;;;;;5052195;28;20469;-80
2022/03/04 00:05:38;;;;;;;18.20;14.20;;;;;;;;;;5052002;28;20873;-79
2022/03/04 00:08:05;;;;;;;21.10;15.40;;;;;;;;;;5052010;28;20440;-78
2022/03/04 00:10:32;;;;;;;18.67;14.90;;;;;;;;;;5051830;28;20474;-79
2022/03/04 00:12:59;;;;;;;19.57;15.63;;;;;;;;;;5050693;28;20479;-78
2022/03/04 00:15:26;;;;;;;27.40;20.87;;;;;;;;;;5051542;28;21002;-78
2022/03/04 00:17:54;;;;;;;25.93;19.67;;;;;;;;;;5051565;28;20875;-80
2022/03/04 00:20:21;;;;;;;19.37;16.50;;;;;;;;;;5052057;28;20525;-77
2022/03/04 00:22:48;;;;;;;19.23;15.53;;;;;;;;;;5051229;28;20481;-78
2022/03/04 00:25:15;;;;;;;26.93;15.67;;;;;;;;;;5052345;28;20969;-78
2022/03/04 00:27:43;;;;;;;17.27;15.03;;;;;;;;;;5051948;28;20956;-78
2022/03/04 00:30:10;;;;;;;17.40;14.23;;;;;;;;;;5051452;28;20449;-77
2022/03/04 00:32:37;;;;;;;20.57;15.20;;;;;;;;;;5050871;28;20469;-79
2022/03/04 00:35:06;;;;;;;24.33;18.73;;;;;;;;;;5051791;28;20560;-78
2022/03/04 00:37:34;;;;;;;21.70;15.60;;;;;;;;;;5051552;28;20456;-78
2022/03/04 00:40:01;;;;;;;19.43;14.60;;;;;;;;;;5051408;28;20869;-77
2022/03/04 00:42:28;;;;;;;18.17;15.13;;;;;;;;;;5050730;28;20489;-78
2022/03/04 00:44:55;;;;;;;20.37;14.97;;;;;;;;;;5051141;28;20976;-79
2022/03/04 00:47:22;;;;;;;19.70;16.33;;;;;;;;;;5051420;28;20797;-78
2022/03/04 00:49:49;;;;;;;19.87;15.87;;;;;;;;;;5051986;28;20452;-79
2022/03/04 00:52:18;;;;;;;19.10;14.57;;;;;;;;;;5051055;28;20464;-78
2022/03/04 00:54:45;;;;;;;19.20;15.40;;;;;;;;;;5051334;28;20448;-81
2022/03/04 00:57:12;;;;;;;19.30;15.77;;;;;;;;;;5051466;28;20940;-79
2022/03/04 00:59:39;;;;;;;17.50;15.60;;;;;;;;;;5051424;28;20807;-77
2022/03/04 01:02:06;;;;;;;16.53;14.43;;;;;;;;;;5051233;28;20463;-78
2022/03/04 01:04:34;;;;;;;18.07;15.00;;;;;;;;;;5050896;28;20530;-79
2022/03/04 01:07:01;;;;;;;19.27;14.77;;;;;;;;;;5051482;28;20479;-78
2022/03/04 01:09:29;;;;;;;19.67;14.57;;;;;;;;;;5051502;28;20442;-77
2022/03/04 01:11:56;;;;;;;17.27;14.47;;;;;;;;;;5050803;28;20517;-78
2022/03/04 01:14:23;;;;;;;21.23;14.97;;;;;;;;;;5051042;28;20461;-77
2022/03/04 01:16:50;;;;;;;19.17;14.40;;;;;;;;;;5051269;28;20530;-77
2022/03/04 01:19:17;;;;;;;18.50;15.27;;;;;;;;;;5051089;28;20574;-78
2022/03/04 01:21:44;;;;;;;21.00;14.93;;;;;;;;;;5051063;28;20471;-78
2022/03/04 01:24:12;;;;;;;18.30;14.30;;;;;;;;;;5051210;28;20482;-79
2022/03/04 01:26:40;;;;;;;19.00;14.97;;;;;;;;;;5054519;28;20826;-78
2022/03/04 01:29:07;;;;;;;20.53;15.37;;;;;;;;;;5055281;28;20500;-79
2022/03/04 01:31:34;;;;;;;21.80;15.80;;;;;;;;;;5055115;28;20581;-77
2022/03/04 01:34:01;;;;;;;17.90;14.53;;;;;;;;;;5054930;28;20455;-78
2022/03/04 01:36:33;;;;;;;20.57;16.50;;;;;;;;;;5054451;28;20439;-79
2022/03/04 01:39:00;;;;;;;18.93;14.53;;;;;;;;;;5054275;28;20453;-78
2022/03/04 01:41:27;;;;;;;19.87;15.50;;;;;;;;;;5054521;28;20556;-78
2022/03/04 01:43:55;;;;;;;20.30;15.60;;;;;;;;;;5054458;28;20486;-79
2022/03/04 01:46:25;;;;;;;20.63;15.13;;;;;;;;;;5054821;28;20546;-78
2022/03/04 01:48:52;;;;;;;17.87;15.03;;;;;;;;;;5054529;28;20429;-78
2022/03/04 01:51:19;;;;;;;20.93;15.47;;;;;;;;;;5054138;28;20467;-78
2022/03/04 01:53:47;;;;;;;19.70;15.33;;;;;;;;;;5053923;28;20449;-78
2022/03/04 01:56:14;;;;;;;18.90;15.77;;;;;;;;;;5054863;28;20937;-77
2022/03/04 01:58:41;;;;;;;26.20;15.70;;;;;;;;;;5054067;28;20451;-78
2022/03/04 02:01:09;;;;;;;18.60;14.83;;;;;;;;;;5054519;28;20480;-78
2022/03/04 02:03:36;;;;;;;20.47;15.63;;;;;;;;;;5053835;28;20498;-78
2022/03/04 02:06:03;;;;;;;16.80;14.90;;;;;;;;;;5053872;28;20768;-78
2022/03/04 02:08:31;;;;;;;17.33;15.20;;;;;;;;;;5054011;28;20466;-78
2022/03/04 02:10:58;;;;;;;22.00;15.30;;;;;;;;;;5054031;28;20473;-77
2022/03/04 02:13:25;;;;;;;21.33;15.40;;;;;;;;;;5054228;28;20509;-78
2022/03/04 02:15:52;;;;;;;19.00;16.27;;;;;;;;;;5067215;28;20440;-78
2022/03/04 02:18:20;;;;;;;21.17;15.60;;;;;;;;;;5066241;28;20431;-79
2022/03/04 02:20:48;;;;;;;18.97;15.80;;;;;;;;;;5056231;28;20454;-77
2022/03/04 02:23:17;;;;;;;22.17;17.17;;;;;;;;;;5053698;28;20483;-78
2022/03/04 02:25:45;;;;;;;17.77;15.33;;;;;;;;;;5053989;28;20447;-77
2022/03/04 02:28:12;;;;;;;22.07;16.23;;;;;;;;;;5053898;28;20446;-77
2022/03/04 02:30:39;;;;;;;18.00;15.93;;;;;;;;;;5055852;28;20990;-77
2022/03/04 02:33:07;;;;;;;20.50;17.03;;;;;;;;;;5059132;28;20443;-78
2022/03/04 02:35:34;;;;;;;21.27;16.73;;;;;;;;;;5062873;28;20441;-77
2022/03/04 02:38:01;;;;;;;18.63;16.33;;;;;;;;;;5061899;28;20931;-78
2022/03/04 02:40:30;;;;;;;20.00;16.37;;;;;;;;;;5055757;28;20444;-78
2022/03/04 02:42:57;;;;;;;21.93;16.07;;;;;;;;;;5053439;28;20468;-78
2022/03/04 02:45:24;;;;;;;19.50;16.57;;;;;;;;;;5053021;28;20520;-79
2022/03/04 02:47:51;;;;;;;22.03;16.43;;;;;;;;;;5052882;28;21009;-78
2022/03/04 02:50:18;;;;;;;19.33;15.57;;;;;;;;;;5053263;28;20524;-78
2022/03/04 02:52:45;;;;;;;17.97;15.37;;;;;;;;;;5053482;28;20478;-78
2022/03/04 02:55:12;;;;;;;21.43;16.57;;;;;;;;;;5053385;28;20500;-77
2022/03/04 02:57:42;;;;;;;19.27;15.60;;;;;;;;;;5053165;28;20546;-77
2022/03/04 03:00:10;;;;;;;20.23;17.07;;;;;;;;;;5053168;28;20449;-79
2022/03/04 03:02:37;;;;;;;19.40;16.73;;;;;;;;;;5053632;28;20502;-79
2022/03/04 03:05:05;;;;;;;19.93;15.77;;;;;;;;;;5053611;28;20478;-79
2022/03/04 03:07:32;;;;;;;21.20;17.20;;;;;;;;;;5053331;28;20476;-79
2022/03/04 03:09:59;;;;;;;19.63;15.70;;;;;;;;;;5053161;28;20564;-77
2022/03/04 03:12:26;;;;;;;22.43;15.63;;;;;;;;;;5053109;28;20478;-78
2022/03/04 03:14:55;;;;;;;21.20;16.17;;;;;;;;;;5052694;28;20438;-78
2022/03/04 03:17:22;;;;;;;20.10;16.50;;;;;;;;;;5052735;28;20981;-78
2022/03/04 03:19:49;;;;;;;18.60;15.60;;;;;;;;;;5052835;28;20435;-77
2022/03/04 03:22:18;;;;;;;19.90;15.50;;;;;;;;;;5052843;28;20468;-78
2022/03/04 03:24:45;;;;;;;19.67;16.20;;;;;;;;;;5057578;28;20504;-77
2022/03/04 03:27:12;;;;;;;21.90;16.87;;;;;;;;;;5060279;28;20454;-78
2022/03/04 03:29:39;;;;;;;19.27;16.20;;;;;;;;;;5058696;28;20991;-78
2022/03/04 03:32:10;;;;;;;22.13;16.23;;;;;;;;;;5060474;28;20454;-77
2022/03/04 03:34:37;;;;;;;18.00;15.20;;;;;;;;;;5057648;28;20443;-78
2022/03/04 03:37:04;;;;;;;20.03;15.60;;;;;;;;;;5052401;28;20460;-78
2022/03/04 03:39:31;;;;;;;20.33;16.47;;;;;;;;;;5052611;28;20465;-78
2022/03/04 03:41:59;;;;;;;22.60;16.80;;;;;;;;;;5052120;28;20467;-78
2022/03/04 03:44:26;;;;;;;18.27;15.73;;;;;;;;;;5052571;28;20536;-78
2022/03/04 03:46:53;;;;;;;22.37;16.60;;;;;;;;;;5052210;28;20499;-78
2022/03/04 03:49:21;;;;;;;19.80;16.80;;;;;;;;;;5052195;28;20443;-78
2022/03/04 03:51:48;;;;;;;23.63;16.80;;;;;;;;;;5051986;28;20470;-78
2022/03/04 03:54:16;;;;;;;21.03;16.07;;;;;;;;;;5051753;28;20898;-78
2022/03/04 03:56:43;;;;;;;23.57;16.20;;;;;;;;;;5051693;28;20437;-78
2022/03/04 03:59:10;;;;;;;18.00;14.47;;;;;;;;;;5052185;28;20550;-78
2022/03/04 04:01:38;;;;;;;16.60;14.50;;;;;;;;;;5052151;28;20465;-78
2022/03/04 04:04:06;;;;;;;22.33;15.90;;;;;;;;;;5051769;28;20566;-78
2022/03/04 04:06:35;;;;;;;20.20;15.70;;;;;;;;;;5051921;28;20941;-78
2022/03/04 04:09:02;;;;;;;22.27;16.23;;;;;;;;;;5051937;28;20496;-77
2022/03/04 04:11:30;;;;;;;24.50;16.90;;;;;;;;;;5051767;28;20466;-78
2022/03/04 04:13:57;;;;;;;19.57;16.67;;;;;;;;;;5051467;28;20442;-77
2022/03/04 04:16:24;;;;;;;20.00;16.73;;;;;;;;;;5052853;28;20446;-77
2022/03/04 04:18:51;;;;;;;17.57;15.70;;;;;;;;;;5053515;28;20446;-77
2022/03/04 04:21:18;;;;;;;19.93;16.43;;;;;;;;;;5053853;28;20461;-77
2022/03/04 04:23:46;;;;;;;20.67;16.73;;;;;;;;;;5052556;28;20485;-77
2022/03/04 04:26:13;;;;;;;20.50;15.70;;;;;;;;;;5051909;28;20442;-77
2022/03/04 04:28:40;;;;;;;19.57;15.10;;;;;;;;;;5052323;28;20523;-78
2022/03/04 04:31:07;;;;;;;21.10;16.20;;;;;;;;;;5052050;28;20826;-78
2022/03/04 04:33:34;;;;;;;21.80;17.33;;;;;;;;;;5051881;28;20434;-79
2022/03/04 04:36:01;;;;;;;19.97;16.20;;;;;;;;;;5052798;28;20449;-78
2022/03/04 04:38:29;;;;;;;22.47;16.87;;;;;;;;;;5052272;28;20457;-77
2022/03/04 04:40:57;;;;;;;18.67;15.60;;;;;;;;;;5052107;28;20465;-78
2022/03/04 04:43:24;;;;;;;22.63;16.73;;;;;;;;;;5051591;28;20498;-78
2022/03/04 04:45:51;;;;;;;21.80;16.07;;;;;;;;;;5052164;28;20430;-78
2022/03/04 04:48:19;;;;;;;24.80;16.97;;;;;;;;;;5052167;28;20468;-78
2022/03/04 04:50:46;;;;;;;22.20;17.10;;;;;;;;;;5051017;28;20495;-78
2022/03/04 04:53:13;;;;;;;20.80;16.30;;;;;;;;;;5051414;28;20825;-77
2022/03/04 04:55:40;;;;;;;18.87;15.03;;;;;;;;;;5052198;28;20507;-77
2022/03/04 04:58:08;;;;;;;20.00;16.20;;;;;;;;;;5051469;28;20449;-77
2022/03/04 05:00:36;;;;;;;22.80;17.10;;;;;;;;;;5054487;28;20473;-78
2022/03/04 05:03:03;;;;;;;23.07;15.80;;;;;;;;;;5055451;28;20451;-78
2022/03/04 05:05:31;;;;;;;19.47;16.47;;;;;;;;;;5055777;28;20531;-78
2022/03/04 05:07:58;;;;;;;20.70;15.77;;;;;;;;;;5056264;28;20447;-78
2022/03/04 05:10:25;;;;;;;24.10;17.70;;;;;;;;;;5056693;28;20437;-78
2022/03/04 05:12:52;;;;;;;21.77;16.87;;;;;;;;;;5056377;28;20480;-78
2022/03/04 05:15:20;;;;;;;25.60;17.90;;;;;;;;;;5056356;28;20934;-78
2022/03/04 05:17:50;;;;;;;23.47;17.23;;;;;;;;;;5056907;28;20438;-78
2022/03/04 05:20:17;;;;;;;20.00;16.50;;;;;;;;;;5057682;28;20466;-78
2022/03/04 05:22:44;;;;;;;23.00;17.83;;;;;;;;;;5056710;28;20450;-78
2022/03/04 05:25:13;;;;;;;28.37;17.10;;;;;;;;;;5056166;28;20473;-78
2022/03/04 05:27:40;;;;;;;22.93;17.77;;;;;;;;;;5055838;28;20445;-78
2022/03/04 05:30:07;;;;;;;21.93;17.57;;;;;;;;;;5055437;28;20817;-78
2022/03/04 05:32:36;;;;;;;21.57;17.57;;;;;;;;;;5055498;28;20461;-78
2022/03/04 05:35:03;;;;;;;23.50;18.27;;;;;;;;;;5056880;28;20438;-78
2022/03/04 05:37:30;;;;;;;24.13;17.60;;;;;;;;;;5056848;28;20461;-77
2022/03/04 05:39:57;;;;;;;21.07;17.50;;;;;;;;;;5055698;28;20457;-78
2022/03/04 05:42:24;;;;;;;24.70;17.83;;;;;;;;;;5056752;28;20465;-79
2022/03/04 05:44:51;;;;;;;24.57;18.20;;;;;;;;;;5056893;28;20473;-79
2022/03/04 05:47:18;;;;;;;19.90;17.03;;;;;;;;;;5057374;28;20444;-79
2022/03/04 05:49:46;;;;;;;21.53;18.13;;;;;;;;;;5054802;28;20969;-77
2022/03/04 05:52:13;;;;;;;22.93;16.93;;;;;;;;;;5054856;28;20469;-77
2022/03/04 05:54:40;;;;;;;24.17;17.57;;;;;;;;;;5054251;28;20438;-79
2022/03/04 05:57:08;;;;;;;22.03;17.57;;;;;;;;;;5054458;28;20460;-78
2022/03/04 05:59:35;;;;;;;24.30;18.40;;;;;;;;;;5054073;28;20446;-78
2022/03/04 06:02:02;;;;;;;26.00;18.70;;;;;;;;;;5054543;28;20473;-78
2022/03/04 06:04:29;;;;;;;51.27;19.33;;;;;;;;;;5053768;28;20809;-78
2022/03/04 06:06:57;;;;;;;24.63;19.20;;;;;;;;;;5054083;28;20499;-78
2022/03/04 06:09:28;;;;;;;23.97;18.00;;;;;;;;;;5054025;28;20980;-78
2022/03/04 06:11:55;;;;;;;23.43;17.70;;;;;;;;;;5053605;28;21040;-78
2022/03/04 06:14:22;;;;;;;22.93;17.47;;;;;;;;;;5053761;28;20999;-78
2022/03/04 06:16:49;;;;;;;25.57;18.30;;;;;;;;;;5054590;28;20449;-78
2022/03/04 06:19:16;;;;;;;23.63;18.00;;;;;;;;;;5053989;28;20597;-78
2022/03/04 06:21:43;;;;;;;25.83;18.87;;;;;;;;;;5054082;28;20516;-77
2022/03/04 06:24:12;;;;;;;23.27;18.50;;;;;;;;;;5053706;28;21002;-78
2022/03/04 06:26:39;;;;;;;23.77;18.13;;;;;;;;;;5053410;28;20476;-78
2022/03/04 06:29:06;;;;;;;24.93;18.90;;;;;;;;;;5055064;28;20452;-77
2022/03/04 06:31:33;;;;;;;25.50;18.53;;;;;;;;;;5065620;28;20465;-79
2022/03/04 06:34:00;;;;;;;30.70;19.70;;;;;;;;;;5063177;28;20452;-78
2022/03/04 06:36:27;;;;;;;27.87;19.73;;;;;;;;;;5060309;28;20448;-80
2022/03/04 06:38:54;;;;;;;31.37;21.67;;;;;;;;;;5065168;28;20454;-79
2022/03/04 06:41:22;;;;;;;26.77;19.53;;;;;;;;;;5073789;28;20848;-80
2022/03/04 06:43:49;;;;;;;28.13;19.83;;;;;;;;;;5073803;28;20444;-79
2022/03/04 06:46:16;;;;;;;27.03;20.60;;;;;;;;;;5073684;28;20484;-78
2022/03/04 06:48:44;;;;;;;26.70;19.40;;;;;;;;;;5074223;28;20444;-78
2022/03/04 06:51:11;;;;;;;24.80;18.57;;;;;;;;;;5073789;28;20959;-79
2022/03/04 06:53:38;;;;;;;26.17;20.33;;;;;;;;;;5073598;28;20527;-77
2022/03/04 06:56:05;;;;;;;24.60;18.37;;;;;;;;;;5074004;28;20453;-78
2022/03/04 06:58:34;;;;;;;28.50;20.50;;;;;;;;;;5078128;28;20448;-77
2022/03/04 07:01:02;;;;;;;25.43;20.20;;;;;;;;;;5095224;28;20496;-79
2022/03/04 07:03:29;;;;;;;24.90;19.80;;;;;;;;;;5095042;28;20449;-78
2022/03/04 07:05:56;;;;;;;30.33;22.70;;;;;;;;;;5073014;28;20473;-79
2022/03/04 07:08:23;;;;;;;28.97;19.73;;;;;;;;;;5071126;28;20621;-80
2022/03/04 07:10:51;;;;;;;27.80;20.50;;;;;;;;;;5068713;28;20524;-79
2022/03/04 07:13:26;;;;;;;31.53;22.57;;;;;;;;;;5066756;28;20459;-77
2022/03/04 07:15:55;;;;;;;27.43;20.43;;;;;;;;;;5074971;28;20497;-78
2022/03/04 07:18:23;;;;;;;29.03;21.27;;;;;;;;;;5056989;28;20456;-78
2022/03/04 07:20:50;;;;;;;28.90;21.50;;;;;;;;;;5058055;28;20437;-78
2022/03/04 07:23:20;;;;;;;33.60;21.63;;;;;;;;;;5062367;28;20449;-80
2022/03/04 07:25:47;;;;;;;24.67;20.23;;;;;;;;;;5065091;28;20518;-78
2022/03/04 07:28:14;;;;;;;33.33;23.90;;;;;;;;;;5063614;28;20452;-78
2022/03/04 07:30:41;;;;;;;47.17;31.80;;;;;;;;;;5063564;28;20929;-80
2022/03/04 07:33:11;;;;;;;27.10;21.00;;;;;;;;;;5062554;28;20457;-78
2022/03/04 07:35:44;;;;;;;28.00;19.53;;;;;;;;;;5061872;28;20510;-79
2022/03/04 07:38:11;;;;;;;25.47;19.13;;;;;;;;;;5060115;28;20486;-79
2022/03/04 07:40:39;;;;;;;29.60;20.67;;;;;;;;;;5060338;28;20454;-78
2022/03/04 07:43:06;;;;;;;39.57;27.77;;;;;;;;;;5058362;28;20449;-78
2022/03/04 07:45:33;;;;;;;29.53;22.13;;;;;;;;;;5059467;28;20544;-78
2022/03/04 07:48:01;;;;;;;25.80;20.37;;;;;;;;;;5059710;28;20434;-79
2022/03/04 07:50:29;;;;;;;27.27;19.73;;;;;;;;;;5055144;28;20459;-78
2022/03/04 07:52:56;;;;;;;26.73;19.90;;;;;;;;;;5056101;28;20479;-79
2022/03/04 07:55:26;;;;;;;25.60;20.53;;;;;;;;;;5069243;28;20438;-78
2022/03/04 07:57:54;;;;;;;24.80;21.10;;;;;;;;;;5074125;28;20436;-79
2022/03/04 08:00:24;;;;;;;28.30;21.97;;;;;;;;;;5041125;28;20487;-81
2022/03/04 08:02:53;;;;;;;25.60;20.73;;;;;;;;;;5054485;28;20467;-80
2022/03/04 08:05:20;;;;;;;26.43;20.20;;;;;;;;;;5061233;28;20515;-79
2022/03/04 08:07:48;;;;;;;28.73;21.07;;;;;;;;;;5054166;28;20939;-78
2022/03/04 08:10:16;;;;;;;24.10;20.50;;;;;;;;;;5053001;28;20449;-78
2022/03/04 08:12:43;;;;;;;26.27;21.33;;;;;;;;;;5051831;28;21011;-78
2022/03/04 08:15:11;;;;;;;29.60;22.10;;;;;;;;;;5053391;28;20441;-78
2022/03/04 08:17:39;;;;;;;22.00;19.03;;;;;;;;;;5056258;28;20750;-79
2022/03/04 08:20:07;;;;;;;28.07;21.13;;;;;;;;;;5051173;28;20538;-79
2022/03/04 08:22:34;;;;;;;28.93;22.60;;;;;;;;;;5067463;28;20456;-79
2022/03/04 08:25:03;;;;;;;31.40;22.77;;;;;;;;;;5061296;28;20470;-80
2022/03/04 08:27:37;;;;;;;24.90;20.80;;;;;;;;;;5065542;28;20454;-79
2022/03/04 08:30:05;;;;;;;27.63;20.30;;;;;;;;;;5058847;28;20976;-80
2022/03/04 08:32:32;;;;;;;25.60;20.83;;;;;;;;;;5056544;28;20472;-81
2022/03/04 08:35:00;;;;;;;28.17;22.23;;;;;;;;;;5057430;28;20454;-79
2022/03/04 08:37:27;;;;;;;29.73;21.83;;;;;;;;;;5061034;28;20464;-80
2022/03/04 08:39:54;;;;;;;23.27;20.70;;;;;;;;;;5061344;28;20458;-79
2022/03/04 08:42:23;;;;;;;30.10;22.73;;;;;;;;;;5066886;28;20561;-80
2022/03/04 08:44:50;;;;;;;28.90;22.57;;;;;;;;;;5064547;28;20476;-79
2022/03/04 08:47:17;;;;;;;28.90;22.70;;;;;;;;;;5066496;28;20430;-78
2022/03/04 08:49:44;;;;;;;25.67;20.53;;;;;;;;;;5065707;28;20445;-80
2022/03/04 08:52:12;;;;;;;27.10;21.43;;;;;;;;;;5064110;28;20468;-79
2022/03/04 08:54:39;;;;;;;30.23;21.83;;;;;;;;;;5061665;28;20549;-80
2022/03/04 08:57:09;;;;;;;29.13;21.47;;;;;;;;;;5062779;28;20966;-80
2022/03/04 08:59:41;;;;;;;27.00;22.00;;;;;;;;;;5062209;28;20442;-80
2022/03/04 09:02:10;;;;;;;30.27;22.03;;;;;;;;;;5063015;28;20442;-79
2022/03/04 09:04:37;;;;;;;26.90;22.33;;;;;;;;;;5062374;28;20548;-79
2022/03/04 09:07:07;;;;;;;25.10;21.90;;;;;;;;;;5060040;28;20483;-78
2022/03/04 09:09:34;;;;;;;25.87;22.63;;;;;;;;;;5060874;28;20439;-79
2022/03/04 09:12:02;;;;;;;28.10;22.23;;;;;;;;;;5059168;28;20455;-80
2022/03/04 09:14:29;;;;;;;28.33;22.93;;;;;;;;;;5060292;28;20517;-80
2022/03/04 09:16:58;;;;;;;30.33;22.17;;;;;;;;;;5060849;28;20435;-81
2022/03/04 09:19:25;;;;;;;27.27;22.47;;;;;;;;;;5059950;28;20952;-78
2022/03/04 09:21:59;;;;;;;26.43;21.97;;;;;;;;;;5057911;28;20529;-79
2022/03/04 09:24:28;;;;;;;26.50;21.13;;;;;;;;;;5059913;28;20455;-83
2022/03/04 09:26:56;;;;;;;27.80;23.17;;;;;;;;;;5073925;28;20501;-81
2022/03/04 09:29:23;;;;;;;30.47;22.30;;;;;;;;;;5068356;28;20455;-79
2022/03/04 09:31:50;;;;;;;25.40;20.37;;;;;;;;;;5075781;28;20465;-79
2022/03/04 09:34:19;;;;;;;27.73;23.30;;;;;;;;;;5077399;28;20857;-78
2022/03/04 09:36:46;;;;;;;27.60;22.50;;;;;;;;;;5076891;28;20452;-79
2022/03/04 09:39:14;;;;;;;34.13;22.30;;;;;;;;;;5075916;28;20436;-80
2022/03/04 09:41:41;;;;;;;26.23;21.60;;;;;;;;;;5076060;28;20955;-81
2022/03/04 09:44:09;;;;;;;25.33;21.47;;;;;;;;;;5076006;28;20846;-81
2022/03/04 09:46:36;;;;;;;27.37;22.37;;;;;;;;;;5075911;28;20483;-79
2022/03/04 09:49:03;;;;;;;27.73;22.00;;;;;;;;;;5076648;28;20436;-81
2022/03/04 09:51:32;;;;;;;27.53;22.73;;;;;;;;;;5076899;28;20468;-78
2022/03/04 09:53:59;;;;;;;26.13;23.37;;;;;;;;;;5076787;28;20449;-79
2022/03/04 09:56:26;;;;;;;26.10;23.30;;;;;;;;;;5078205;28;20467;-80
2022/03/04 09:58:53;;;;;;;28.03;23.30;;;;;;;;;;5089527;28;20514;-80
2022/03/04 10:01:20;;;;;;;27.77;23.23;;;;;;;;;;5081997;28;20547;-80
2022/03/04 10:03:51;;;;;;;28.23;22.90;;;;;;;;;;5077310;28;20471;-79
2022/03/04 10:06:18;;;;;;;24.53;21.87;;;;;;;;;;5077288;28;20457;-79
2022/03/04 10:08:47;;;;;;;30.33;23.70;;;;;;;;;;5076705;28;20448;-80
2022/03/04 10:11:25;;;;;;;26.87;23.20;;;;;;;;;;5084917;28;20461;-79
2022/03/04 10:13:53;;;;;;;26.03;23.20;;;;;;;;;;5084718;28;20486;-80
2022/03/04 10:16:23;;;;;;;26.40;22.20;;;;;;;;;;5084055;28;20443;-78
2022/03/04 10:19:05;;;;;;;27.17;24.20;;;;;;;;;;5082104;28;20417;-79
2022/03/04 10:21:45;;;;;;;26.30;23.47;;;;;;;;;;5076097;28;20543;-79
2022/03/04 10:24:13;;;;;;;25.90;23.03;;;;;;;;;;5074751;28;20444;-81
2022/03/04 10:26:40;;;;;;;28.90;24.20;;;;;;;;;;5075202;28;20472;-79
2022/03/04 10:29:17;;;;;;;25.73;23.03;;;;;;;;;;5074536;28;20445;-79
2022/03/04 10:32:06;;;;;;;26.53;23.67;;;;;;;;;;5075319;28;20465;-80
2022/03/04 10:34:43;;;;;;;29.13;21.93;;;;;;;;;;5074167;28;20445;-79
2022/03/04 10:37:10;;;;;;;25.43;21.70;;;;;;;;;;5074857;28;20421;-79
2022/03/04 10:39:57;;;;;;;25.63;22.70;;;;;;;;;;5061233;28;20470;-79
2022/03/04 10:42:38;;;;;;;25.83;23.13;;;;;;;;;;5056976;28;20489;-81
2022/03/04 10:45:07;;;;;;;26.40;23.00;;;;;;;;;;5058687;28;20421;-80
2022/03/04 10:47:40;;;;;;;26.00;23.20;;;;;;;;;;5060121;28;20515;-79
2022/03/04 10:50:08;;;;;;;25.17;22.57;;;;;;;;;;5074265;28;20938;-79
2022/03/04 10:52:35;;;;;;;24.87;22.27;;;;;;;;;;5074975;28;20793;-80
2022/03/04 10:55:04;;;;;;;25.40;22.57;;;;;;;;;;5074914;28;20444;-80
2022/03/04 10:57:41;;;;;;;24.60;22.10;;;;;;;;;;5072989;28;20425;-80
2022/03/04 11:00:09;;;;;;;24.93;21.33;;;;;;;;;;5074182;28;20463;-78
2022/03/04 11:02:41;;;;;;;24.93;22.43;;;;;;;;;;5074140;28;20979;-79
2022/03/04 11:05:09;;;;;;;25.50;22.60;;;;;;;;;;5073677;28;20444;-80
2022/03/04 11:07:36;;;;;;;25.23;22.40;;;;;;;;;;5073786;28;20476;-80
2022/03/04 11:10:05;;;;;;;26.10;22.73;;;;;;;;;;5073946;28;20475;-80
2022/03/04 11:12:33;;;;;;;24.20;21.07;;;;;;;;;;5073609;28;20449;-80
2022/03/04 11:15:00;;;;;;;25.00;21.77;;;;;;;;;;5074355;28;20436;-80
2022/03/04 11:17:27;;;;;;;24.87;22.27;;;;;;;;;;5074104;28;20466;-80
2022/03/04 11:19:54;;;;;;;25.10;20.97;;;;;;;;;;5052700;28;20927;-80
2022/03/04 11:22:21;;;;;;;26.10;22.77;;;;;;;;;;5062445;28;20456;-79
2022/03/04 11:24:49;;;;;;;25.40;22.83;;;;;;;;;;5070210;28;20818;-81
2022/03/04 11:27:18;;;;;;;24.57;21.97;;;;;;;;;;5069138;28;20473;-82
2022/03/04 11:29:45;;;;;;;24.50;21.90;;;;;;;;;;5062654;28;20937;-82
2022/03/04 11:32:12;;;;;;;23.53;21.03;;;;;;;;;;5070411;28;20831;-82
2022/03/04 11:34:41;;;;;;;24.00;21.33;;;;;;;;;;5078290;28;20439;-81
2022/03/04 11:37:16;;;;;;;23.87;21.37;;;;;;;;;;5074395;28;20437;-81
2022/03/04 11:39:58;;;;;;;25.60;22.90;;;;;;;;;;5073999;28;20463;-81
2022/03/04 11:42:28;;;;;;;26.10;21.60;;;;;;;;;;5073664;28;20464;-81
2022/03/04 11:44:57;;;;;;;23.50;20.23;;;;;;;;;;5076538;28;20421;-81
2022/03/04 11:47:27;;;;;;;23.13;20.77;;;;;;;;;;5082481;28;20476;-80
2022/03/04 11:49:54;;;;;;;24.00;21.40;;;;;;;;;;5078119;28;20457;-79
2022/03/04 11:52:25;;;;;;;22.47;20.07;;;;;;;;;;5083738;28;20480;-80
2022/03/04 11:55:11;;;;;;;22.10;19.77;;;;;;;;;;5090837;28;20536;-79
2022/03/04 11:57:40;;;;;;;20.47;18.30;;;;;;;;;;5084386;28;20480;-79
2022/03/04 12:00:28;;;;;;;19.93;17.97;;;;;;;;;;5073903;28;20425;-81
2022/03/04 12:02:56;;;;;;;19.87;17.87;;;;;;;;;;5069603;28;20461;-81
2022/03/04 12:05:25;;;;;;;19.07;16.90;;;;;;;;;;5073638;28;20433;-79
2022/03/04 12:07:53;;;;;;;19.33;17.33;;;;;;;;;;5034542;28;20486;-81
2022/03/04 12:10:22;;;;;;;17.73;15.90;;;;;;;;;;5035008;28;20446;-80
2022/03/04 12:13:02;;;;;;;17.53;15.73;;;;;;;;;;5052125;28;20895;-81
2022/03/04 12:15:35;;;;;;;21.60;18.83;;;;;;;;;;5058994;28;20928;-80
2022/03/04 12:18:03;;;;;;;17.67;15.87;;;;;;;;;;5056973;28;20516;-81
2022/03/04 12:20:31;;;;;;;16.10;14.47;;;;;;;;;;5074980;28;20444;-79
2022/03/04 12:22:58;;;;;;;15.77;14.17;;;;;;;;;;5073798;28;20468;-80
2022/03/04 12:25:49;;;;;;;18.53;15.73;;;;;;;;;;5063432;28;20459;-81
2022/03/04 12:28:18;;;;;;;17.03;15.23;;;;;;;;;;5034722;28;20441;-80
2022/03/04 12:30:45;;;;;;;16.97;15.23;;;;;;;;;;5037454;28;20447;-81
2022/03/04 12:33:13;;;;;;;24.90;22.27;;;;;;;;;;5036556;28;20469;-82
2022/03/04 12:35:40;;;;;;;21.03;18.83;;;;;;;;;;5039105;28;20426;-80
2022/03/04 12:38:07;;;;;;;31.67;28.23;;;;;;;;;;5038565;28;20471;-80
2022/03/04 12:40:38;;;;;;;21.30;19.13;;;;;;;;;;5052142;28;20564;-81
2022/03/04 12:43:09;;;;;;;21.83;19.47;;;;;;;;;;5045148;28;20512;-80
2022/03/04 12:45:38;;;;;;;21.67;19.37;;;;;;;;;;5042669;28;20533;-80
2022/03/04 12:48:05;;;;;;;21.93;18.80;;;;;;;;;;5055017;28;20606;-81
2022/03/04 12:50:32;;;;;;;23.10;20.60;;;;;;;;;;5061016;28;20441;-79
2022/03/04 12:52:59;;;;;;;21.97;19.50;;;;;;;;;;5056653;28;20473;-80
2022/03/04 12:55:26;;;;;;;22.33;20.03;;;;;;;;;;5055690;28;20757;-80
2022/03/04 12:57:54;;;;;;;22.80;19.53;;;;;;;;;;5056471;28;20445;-82
2022/03/04 13:00:21;;;;;;;22.53;19.67;;;;;;;;;;5055685;28;20457;-79
2022/03/04 13:02:49;;;;;;;21.13;18.93;;;;;;;;;;5056145;28;20461;-82
2022/03/04 13:05:16;;;;;;;23.20;20.70;;;;;;;;;;5055196;28;20440;-81
2022/03/04 13:07:43;;;;;;;21.90;17.33;;;;;;;;;;5064084;28;20486;-83
2022/03/04 13:10:10;;;;;;;18.83;16.90;;;;;;;;;;5056690;28;20452;-81
2022/03/04 13:12:39;;;;;;;21.30;16.97;;;;;;;;;;5069276;28;20465;-83
2022/03/04 13:15:10;;;;;;;18.20;16.30;;;;;;;;;;5065755;28;20470;-81
2022/03/04 13:17:37;;;;;;;20.10;17.93;;;;;;;;;;5056131;28;20436;-82
2022/03/04 13:20:09;;;;;;;18.37;16.50;;;;;;;;;;5057354;28;20468;-83
2022/03/04 13:22:36;;;;;;;18.20;16.23;;;;;;;;;;5060477;28;20466;-82
2022/03/04 13:25:04;;;;;;;20.00;18.00;;;;;;;;;;5059757;28;20943;-80
2022/03/04 13:27:38;;;;;;;19.33;17.20;;;;;;;;;;5057075;28;20469;-79
2022/03/04 13:30:05;;;;;;;19.00;17.23;;;;;;;;;;5058622;28;20445;-80
2022/03/04 13:32:32;;;;;;;21.27;17.83;;;;;;;;;;5058968;28;20504;-80
2022/03/04 13:35:00;;;;;;;19.70;17.03;;;;;;;;;;5057809;28;20460;-79
2022/03/04 13:37:29;;;;;;;19.37;17.37;;;;;;;;;;5058509;28;20583;-79
2022/03/04 13:40:00;;;;;;;19.60;17.63;;;;;;;;;;5057252;28;20941;-79
2022/03/04 13:42:28;;;;;;;18.50;16.63;;;;;;;;;;5058197;28;20445;-79
2022/03/04 13:44:56;;;;;;;18.70;16.80;;;;;;;;;;5057613;28;20441;-82
2022/03/04 13:47:34;;;;;;;19.10;16.67;;;;;;;;;;5057322;28;20484;-82
2022/03/04 13:50:02;;;;;;;18.23;16.33;;;;;;;;;;5057843;28;20457;-80
2022/03/04 13:52:30;;;;;;;17.63;15.80;;;;;;;;;;5056289;28;20461;-81
2022/03/04 13:54:58;;;;;;;16.43;14.73;;;;;;;;;;5053955;28;20505;-80
2022/03/04 13:57:30;;;;;;;17.30;15.60;;;;;;;;;;5061377;28;20440;-83
2022/03/04 14:00:00;;;;;;;17.77;15.87;;;;;;;;;;5055350;28;20452;-81
2022/03/04 14:02:27;;;;;;;18.00;14.67;;;;;;;;;;5061842;28;20475;-81
2022/03/04 14:04:55;;;;;;;16.30;14.53;;;;;;;;;;5074749;28;20506;-79
2022/03/04 14:07:22;;;;;;;16.90;14.83;;;;;;;;;;5069155;28;20481;-81
2022/03/04 14:09:55;;;;;;;16.90;15.23;;;;;;;;;;5053798;28;20830;-81
2022/03/04 14:12:23;;;;;;;16.50;14.80;;;;;;;;;;5053732;28;20901;-81
2022/03/04 14:14:50;;;;;;;16.63;14.70;;;;;;;;;;5053158;28;21004;-80
2022/03/04 14:17:17;;;;;;;16.57;14.73;;;;;;;;;;5054471;28;20445;-79
2022/03/04 14:19:44;;;;;;;15.70;14.10;;;;;;;;;;5054473;28;20429;-82
2022/03/04 14:22:11;;;;;;;15.63;14.13;;;;;;;;;;5053292;28;20458;-80